Time;durP1;ratioP1;P1;durP2;ratioP2;P2;SDS_P1;SDS_P2;PMS_P1;PMS_P2;Temp;Humidity;BMP_temperature;BMP_pressure;BME280_temperature;BME280_humidity;BME280_pressure;Samples;Min_cycle;Max_cycle;Signal;HPM_P1;HPM_P2
2024/01/13 00:01:49;;;;;;;6.00;3.05;;;3.00;99.90;;;;;;5085371;28;20031;-63
2024/01/13 00:04:15;;;;;;;5.22;3.20;;;3.00;99.90;;;;;;5083843;28;20040;-63
2024/01/13 00:06:41;;;;;;;5.07;3.13;;;3.00;99.90;;;;;;5088096;28;20062;-63
2024/01/13 00:09:07;;;;;;;9.07;2.70;;;3.00;99.90;;;;;;5091022;28;20517;-63
2024/01/13 00:11:33;;;;;;;6.32;2.30;;;3.10;99.90;;;;;;5089854;28;20625;-63
2024/01/13 00:13:58;;;;;;;6.32;3.03;;;3.10;99.90;;;;;;5089994;28;20052;-63
2024/01/13 00:16:24;;;;;;;4.60;2.50;;;3.00;99.90;;;;;;5089393;28;20123;-63
2024/01/13 00:18:49;;;;;;;4.18;2.40;;;3.00;99.90;;;;;;5086883;28;20076;-63
2024/01/13 00:21:15;;;;;;;8.15;2.20;;;3.00;99.90;;;;;;5089447;28;20066;-63
2024/01/13 00:23:41;;;;;;;10.27;3.22;;;3.00;99.90;;;;;;5084706;28;20040;-63
2024/01/13 00:26:06;;;;;;;4.70;2.78;;;3.00;99.90;;;;;;5123545;27;20055;-63
2024/01/13 00:28:33;;;;;;;3.50;2.20;;;3.10;99.90;;;;;;5092090;28;20600;-63
2024/01/13 00:30:59;;;;;;;4.85;2.28;;;3.00;99.90;;;;;;5104294;27;20475;-63
2024/01/13 00:33:24;;;;;;;3.15;1.90;;;3.00;99.90;;;;;;5084863;28;20093;-63
2024/01/13 00:35:50;;;;;;;4.78;1.92;;;3.00;99.90;;;;;;5120017;27;20610;-63
2024/01/13 00:38:16;;;;;;;5.75;2.28;;;3.00;99.90;;;;;;5089219;28;20444;-63
2024/01/13 00:40:42;;;;;;;7.05;2.05;;;3.00;99.90;;;;;;5083165;28;20048;-63
2024/01/13 00:43:08;;;;;;;5.15;2.08;;;3.00;99.90;;;;;;5084107;28;20042;-63
2024/01/13 00:45:34;;;;;;;5.22;2.65;;;3.00;99.90;;;;;;5117505;27;20074;-63
2024/01/13 00:48:01;;;;;;;3.67;2.08;;;3.00;99.90;;;;;;5087014;28;20036;-63
2024/01/13 00:50:26;;;;;;;3.05;2.05;;;3.00;99.90;;;;;;5086084;28;20040;-63
2024/01/13 00:52:52;;;;;;;4.97;1.98;;;3.00;99.90;;;;;;5082012;28;20501;-63
2024/01/13 00:55:18;;;;;;;5.93;1.70;;;3.00;99.90;;;;;;5085664;28;20048;-63
2024/01/13 00:57:43;;;;;;;10.07;1.85;;;3.00;99.90;;;;;;5086023;28;20566;-63
2024/01/13 01:00:10;;;;;;;5.55;2.33;;;3.00;99.90;;;;;;5088018;28;20086;-63
2024/01/13 01:02:36;;;;;;;4.50;2.22;;;3.10;99.90;;;;;;5083251;28;20046;-63
2024/01/13 01:05:01;;;;;;;6.63;2.00;;;3.10;99.90;;;;;;5100939;27;20576;-63
2024/01/13 01:07:27;;;;;;;4.35;2.08;;;3.10;99.90;;;;;;5082310;28;20460;-63
2024/01/13 01:09:53;;;;;;;5.97;2.25;;;3.00;99.90;;;;;;5089550;28;20070;-63
2024/01/13 01:12:18;;;;;;;4.15;1.90;;;3.10;99.90;;;;;;5085159;28;20036;-63
2024/01/13 01:14:44;;;;;;;6.00;2.10;;;3.00;99.90;;;;;;5090838;28;20821;-63
2024/01/13 01:17:09;;;;;;;4.82;2.30;;;3.00;99.90;;;;;;5090907;28;20047;-63
2024/01/13 01:19:35;;;;;;;3.67;2.13;;;3.00;99.90;;;;;;5086249;28;20032;-63
2024/01/13 01:22:01;;;;;;;5.72;1.80;;;3.00;99.90;;;;;;5085795;28;20035;-63
2024/01/13 01:24:26;;;;;;;2.15;1.60;;;3.00;99.90;;;;;;5083986;28;20032;-63
2024/01/13 01:26:52;;;;;;;3.92;1.70;;;3.00;99.90;;;;;;5085370;28;20040;-63
2024/01/13 01:29:17;;;;;;;2.72;1.83;;;3.00;99.90;;;;;;5085541;28;20072;-63
2024/01/13 01:31:43;;;;;;;3.13;1.83;;;3.00;99.90;;;;;;5088238;28;20123;-63
2024/01/13 01:34:08;;;;;;;3.08;1.50;;;3.00;99.90;;;;;;5087077;28;20432;-63
2024/01/13 01:36:34;;;;;;;2.72;1.45;;;3.00;99.90;;;;;;5086761;28;20051;-63
2024/01/13 01:38:59;;;;;;;4.00;1.50;;;3.00;99.90;;;;;;5119586;27;20044;-63
2024/01/13 01:41:25;;;;;;;2.55;1.58;;;3.00;99.90;;;;;;5121345;27;20040;-63
2024/01/13 01:43:51;;;;;;;3.95;1.63;;;3.10;99.90;;;;;;5084368;28;20039;-63
2024/01/13 01:46:20;;;;;;;4.35;1.77;;;3.00;99.90;;;;;;5085029;28;20037;-63
2024/01/13 01:48:46;;;;;;;4.10;2.03;;;3.00;99.90;;;;;;5088047;28;20092;-63
2024/01/13 01:51:16;;;;;;;7.85;2.60;;;3.10;99.90;;;;;;5082014;28;20545;-63
2024/01/13 01:53:44;;;;;;;3.97;1.95;;;3.10;99.90;;;;;;5087008;28;20039;-63
2024/01/13 01:56:15;;;;;;;5.53;2.33;;;3.10;99.90;;;;;;5085326;28;20536;-64
2024/01/13 01:58:42;;;;;;;6.47;2.42;;;3.10;99.90;;;;;;5086936;28;20363;-63
2024/01/13 02:01:08;;;;;;;7.93;2.83;;;3.20;99.90;;;;;;5087115;28;20059;-63
2024/01/13 02:03:36;;;;;;;6.05;2.95;;;3.20;99.90;;;;;;5085192;28;20032;-63
2024/01/13 02:06:02;;;;;;;7.47;3.17;;;3.20;99.90;;;;;;5083286;28;20039;-63
2024/01/13 02:08:29;;;;;;;5.45;2.92;;;3.20;99.90;;;;;;5115107;27;20044;-63
2024/01/13 02:10:54;;;;;;;5.50;2.67;;;3.20;99.90;;;;;;5085706;28;20633;-63
2024/01/13 02:13:20;;;;;;;10.07;3.15;;;3.20;99.90;;;;;;5087444;28;20047;-63
2024/01/13 02:15:46;;;;;;;8.23;3.00;;;3.20;99.90;;;;;;5082922;28;20416;-63
2024/01/13 02:18:11;;;;;;;7.10;3.28;;;3.20;99.90;;;;;;5082595;28;20076;-63
2024/01/13 02:20:37;;;;;;;9.43;3.42;;;3.20;99.90;;;;;;5091743;28;20036;-63
2024/01/13 02:23:02;;;;;;;10.20;3.63;;;3.20;99.90;;;;;;5084109;28;20043;-63
2024/01/13 02:25:28;;;;;;;9.05;3.35;;;3.20;99.90;;;;;;5083268;28;20055;-63
2024/01/13 02:27:53;;;;;;;10.85;3.58;;;3.20;99.90;;;;;;5088139;28;20371;-63
2024/01/13 02:30:19;;;;;;;4.47;2.92;;;3.20;99.90;;;;;;5117738;27;20071;-63
2024/01/13 02:32:44;;;;;;;6.18;3.63;;;3.20;99.90;;;;;;5084609;28;20044;-63
2024/01/13 02:35:10;;;;;;;8.13;3.17;;;3.20;99.90;;;;;;5083322;28;20546;-63
2024/01/13 02:37:36;;;;;;;10.13;3.70;;;3.20;99.90;;;;;;5083078;28;20100;-63
2024/01/13 02:40:02;;;;;;;5.65;3.22;;;3.20;99.90;;;;;;5085500;28;20164;-63
2024/01/13 02:42:28;;;;;;;11.63;3.60;;;3.20;99.90;;;;;;5071632;28;20055;-63
2024/01/13 02:44:54;;;;;;;6.65;3.30;;;3.20;99.90;;;;;;5084933;28;20032;-63
2024/01/13 02:47:26;;;;;;;9.10;3.67;;;3.30;99.90;;;;;;5079735;28;20028;-63
2024/01/13 02:49:52;;;;;;;9.98;4.00;;;3.30;99.90;;;;;;5086085;28;20036;-63
2024/01/13 02:52:17;;;;;;;7.60;3.40;;;3.20;99.90;;;;;;5116678;27;20047;-63
2024/01/13 02:54:43;;;;;;;7.97;3.40;;;3.30;99.90;;;;;;5084817;28;20044;-63
2024/01/13 02:57:08;;;;;;;8.70;3.53;;;3.20;99.90;;;;;;5116270;27;20498;-63
2024/01/13 02:59:34;;;;;;;5.15;3.42;;;3.20;99.90;;;;;;5084030;28;20096;-63
2024/01/13 03:02:00;;;;;;;6.90;3.53;;;3.30;99.90;;;;;;5082252;28;20044;-63
2024/01/13 03:04:25;;;;;;;6.50;3.22;;;3.20;99.90;;;;;;5084680;28;20482;-63
2024/01/13 03:06:51;;;;;;;6.38;3.67;;;3.30;99.90;;;;;;5081103;28;20047;-63
2024/01/13 03:09:16;;;;;;;9.40;3.80;;;3.20;99.90;;;;;;5081542;28;20036;-63
2024/01/13 03:11:42;;;;;;;6.75;3.40;;;3.30;99.90;;;;;;5085318;28;20051;-63
2024/01/13 03:14:08;;;;;;;6.22;3.90;;;3.20;99.90;;;;;;5083059;28;20048;-63
2024/01/13 03:16:33;;;;;;;5.63;3.30;;;3.30;99.90;;;;;;5069368;28;20051;-63
2024/01/13 03:18:59;;;;;;;7.97;3.50;;;3.20;99.90;;;;;;5114507;27;20454;-63
2024/01/13 03:21:24;;;;;;;7.93;3.65;;;3.30;99.90;;;;;;5079373;28;20044;-63
2024/01/13 03:23:50;;;;;;;11.02;3.72;;;3.30;99.90;;;;;;5087550;28;20118;-63
2024/01/13 03:26:15;;;;;;;6.43;3.15;;;3.30;99.90;;;;;;5083544;28;20040;-63
2024/01/13 03:28:41;;;;;;;10.77;3.67;;;3.30;99.90;;;;;;5083810;28;20070;-63
2024/01/13 03:31:11;;;;;;;7.20;3.83;;;3.20;99.90;;;;;;5084397;28;20514;-63
2024/01/13 03:33:37;;;;;;;8.50;4.00;;;3.30;99.90;;;;;;5115918;27;20044;-63
2024/01/13 03:36:03;;;;;;;9.68;3.45;;;3.20;99.90;;;;;;5082258;28;20052;-63
2024/01/13 03:38:28;;;;;;;7.32;3.00;;;3.20;99.90;;;;;;5083037;28;20474;-63
2024/01/13 03:40:54;;;;;;;6.70;3.03;;;3.30;99.90;;;;;;5089649;28;20064;-63
2024/01/13 03:43:19;;;;;;;8.85;3.40;;;3.30;99.90;;;;;;5118377;27;20120;-63
2024/01/13 03:45:45;;;;;;;10.05;3.65;;;3.20;99.90;;;;;;5084598;28;20085;-63
2024/01/13 03:48:11;;;;;;;7.70;3.10;;;3.20;99.90;;;;;;5083342;28;20103;-63
2024/01/13 03:50:36;;;;;;;6.43;2.90;;;3.30;99.90;;;;;;5088120;28;20024;-63
2024/01/13 03:53:02;;;;;;;7.35;2.90;;;3.30;99.90;;;;;;5081137;28;20044;-63
2024/01/13 03:55:27;;;;;;;6.55;2.53;;;3.30;99.90;;;;;;5088177;28;20046;-63
2024/01/13 03:57:53;;;;;;;7.45;2.78;;;3.30;99.90;;;;;;5084732;28;20727;-63
2024/01/13 04:00:19;;;;;;;9.38;3.10;;;3.30;99.90;;;;;;5083831;28;20039;-63
2024/01/13 04:02:45;;;;;;;4.72;2.50;;;3.30;99.90;;;;;;5080622;28;20417;-63
2024/01/13 04:05:10;;;;;;;8.25;2.90;;;3.30;99.90;;;;;;5081715;28;20037;-63
2024/01/13 04:07:36;;;;;;;7.15;2.35;;;3.30;99.90;;;;;;5085117;28;20558;-63
2024/01/13 04:10:02;;;;;;;5.78;2.63;;;3.30;99.90;;;;;;5085498;28;20474;-63
2024/01/13 04:12:27;;;;;;;10.38;3.08;;;3.30;99.90;;;;;;5083015;28;20073;-63
2024/01/13 04:14:53;;;;;;;9.35;2.47;;;3.30;99.90;;;;;;5081979;28;20414;-63
2024/01/13 04:17:18;;;;;;;5.22;3.08;;;3.30;99.90;;;;;;5082214;28;20105;-63
2024/01/13 04:19:44;;;;;;;8.10;3.45;;;3.30;99.90;;;;;;5083750;28;20044;-63
2024/01/13 04:22:10;;;;;;;6.35;3.13;;;3.30;99.90;;;;;;5085410;28;20130;-64
2024/01/13 04:24:35;;;;;;;7.97;3.40;;;3.30;99.90;;;;;;5084548;28;20028;-63
2024/01/13 04:27:01;;;;;;;8.25;3.17;;;3.30;99.90;;;;;;5116764;27;20045;-63
2024/01/13 04:29:26;;;;;;;7.25;3.13;;;3.30;99.90;;;;;;5082253;28;20393;-63
2024/01/13 04:31:52;;;;;;;3.90;3.17;;;3.30;99.90;;;;;;5086420;28;20041;-63
2024/01/13 04:34:18;;;;;;;6.80;3.15;;;3.30;99.90;;;;;;5084505;28;20090;-63
2024/01/13 04:36:43;;;;;;;6.22;3.10;;;3.30;99.90;;;;;;5088290;28;20032;-63
2024/01/13 04:39:09;;;;;;;8.68;3.20;;;3.30;99.90;;;;;;5091271;28;20630;-63
2024/01/13 04:41:34;;;;;;;7.13;2.90;;;3.30;99.90;;;;;;5089671;28;20400;-63
2024/01/13 04:44:00;;;;;;;7.60;3.28;;;3.30;99.90;;;;;;5089933;28;20036;-63
2024/01/13 04:46:25;;;;;;;7.28;3.58;;;3.30;99.90;;;;;;5086198;28;20045;-63
2024/01/13 04:48:51;;;;;;;5.68;3.40;;;3.30;99.90;;;;;;5086910;28;20045;-63
2024/01/13 04:51:17;;;;;;;7.15;2.97;;;3.30;99.90;;;;;;5085926;28;20028;-63
2024/01/13 04:53:42;;;;;;;7.57;2.88;;;3.30;99.90;;;;;;5070722;28;20596;-63
2024/01/13 04:56:08;;;;;;;5.03;2.78;;;3.30;99.90;;;;;;5085489;28;20447;-63
2024/01/13 04:58:33;;;;;;;6.28;3.13;;;3.30;99.90;;;;;;5087861;28;20036;-63
2024/01/13 05:00:59;;;;;;;6.15;2.63;;;3.30;99.90;;;;;;5090909;28;20032;-63
2024/01/13 05:03:25;;;;;;;5.72;2.45;;;3.30;99.90;;;;;;5071206;28;20126;-63
2024/01/13 05:05:51;;;;;;;8.52;3.22;;;3.20;99.90;;;;;;5089734;28;20524;-63
2024/01/13 05:08:16;;;;;;;8.38;2.40;;;3.30;99.90;;;;;;5088617;28;20040;-63
2024/01/13 05:10:42;;;;;;;8.48;2.70;;;3.30;99.90;;;;;;5084259;28;20040;-63
2024/01/13 05:13:08;;;;;;;6.30;2.47;;;3.30;99.90;;;;;;5088981;28;20048;-63
2024/01/13 05:15:33;;;;;;;6.00;2.15;;;3.30;99.90;;;;;;5084692;28;20044;-63
2024/01/13 05:17:59;;;;;;;4.75;2.30;;;3.30;99.90;;;;;;5085024;28;20033;-63
2024/01/13 05:20:24;;;;;;;3.92;1.95;;;3.30;99.90;;;;;;5089481;28;20039;-63
2024/01/13 05:22:51;;;;;;;7.05;2.50;;;3.30;99.90;;;;;;5085922;28;20031;-63
2024/01/13 05:25:16;;;;;;;7.85;2.15;;;3.40;99.90;;;;;;5115770;27;20115;-63
2024/01/13 05:27:42;;;;;;;4.88;2.10;;;3.30;99.90;;;;;;5086669;28;20177;-63
2024/01/13 05:30:09;;;;;;;4.97;1.80;;;3.30;99.90;;;;;;5085445;28;20040;-63
2024/01/13 05:32:36;;;;;;;4.90;1.80;;;3.30;99.90;;;;;;5086988;28;20059;-63
2024/01/13 05:35:01;;;;;;;4.53;1.65;;;3.30;99.90;;;;;;5119983;27;20497;-63
2024/01/13 05:37:27;;;;;;;2.55;1.20;;;3.30;99.90;;;;;;5079399;28;20037;-63
2024/01/13 05:39:53;;;;;;;6.18;1.27;;;3.20;99.90;;;;;;5087448;28;20044;-63
2024/01/13 05:42:18;;;;;;;4.25;1.17;;;3.30;99.90;;;;;;5084042;28;20123;-63
2024/01/13 05:44:44;;;;;;;2.75;1.10;;;3.20;99.90;;;;;;5083196;28;20032;-63
2024/01/13 05:47:09;;;;;;;2.95;1.20;;;3.20;99.90;;;;;;5082432;28;20479;-63
2024/01/13 05:49:35;;;;;;;3.65;1.60;;;3.20;99.90;;;;;;5091499;28;20050;-63
2024/01/13 05:52:01;;;;;;;4.70;1.33;;;3.20;99.90;;;;;;5085210;28;20044;-63
2024/01/13 05:54:27;;;;;;;1.90;1.00;;;3.10;99.90;;;;;;5088494;28;20505;-63
2024/01/13 05:56:52;;;;;;;3.90;0.98;;;3.20;99.90;;;;;;5085883;28;20043;-63
2024/01/13 05:59:18;;;;;;;2.38;1.05;;;3.10;99.90;;;;;;5091089;28;20043;-63
2024/01/13 06:01:44;;;;;;;1.80;0.98;;;3.10;99.90;;;;;;5119718;27;20028;-63
2024/01/13 06:04:09;;;;;;;3.75;1.10;;;3.20;99.90;;;;;;5086170;28;20136;-63
2024/01/13 06:06:35;;;;;;;2.45;0.90;;;3.20;99.90;;;;;;5084409;28;20539;-63
2024/01/13 06:09:00;;;;;;;1.48;0.77;;;3.20;99.90;;;;;;5117605;27;20044;-63
2024/01/13 06:11:26;;;;;;;5.63;0.88;;;3.10;99.90;;;;;;5085463;28;20032;-63
2024/01/13 06:13:53;;;;;;;1.67;0.63;;;3.10;99.90;;;;;;5085120;28;20517;-63
2024/01/13 06:16:18;;;;;;;3.20;0.82;;;3.10;99.90;;;;;;5084504;28;20031;-63
2024/01/13 06:18:44;;;;;;;2.28;0.82;;;3.20;99.90;;;;;;5082992;28;20043;-63
2024/01/13 06:21:10;;;;;;;3.00;0.82;;;3.20;99.90;;;;;;5089548;28;20024;-63
2024/01/13 06:23:35;;;;;;;2.97;1.00;;;3.20;99.90;;;;;;5087681;28;20550;-63
2024/01/13 06:26:01;;;;;;;2.85;1.15;;;3.20;99.90;;;;;;5090292;28;20036;-63
2024/01/13 06:28:26;;;;;;;3.72;1.13;;;3.20;99.90;;;;;;5083064;28;20040;-63
2024/01/13 06:30:52;;;;;;;2.35;0.90;;;3.20;99.90;;;;;;5086303;28;20036;-63
2024/01/13 06:33:18;;;;;;;3.10;0.98;;;3.10;99.90;;;;;;5118895;27;20032;-63
2024/01/13 06:35:43;;;;;;;2.65;1.40;;;3.10;99.90;;;;;;5087769;28;20043;-63
2024/01/13 06:38:09;;;;;;;3.00;1.05;;;3.20;99.90;;;;;;5088852;28;20074;-63
2024/01/13 06:40:34;;;;;;;3.55;1.15;;;3.20;99.90;;;;;;5086953;28;20083;-63
2024/01/13 06:43:00;;;;;;;5.18;1.20;;;3.20;99.90;;;;;;5081559;28;20044;-63
2024/01/13 06:45:25;;;;;;;4.88;1.80;;;3.20;99.90;;;;;;5084400;28;20039;-63
2024/01/13 06:47:51;;;;;;;2.15;1.30;;;2.80;99.90;;;;;;5079145;28;20042;-63
2024/01/13 06:50:16;;;;;;;6.07;1.48;;;3.10;99.90;;;;;;5081478;28;20398;-63
2024/01/13 06:52:42;;;;;;;4.07;1.13;;;3.20;99.90;;;;;;5114659;27;20041;-63
2024/01/13 06:55:08;;;;;;;2.70;1.13;;;3.20;99.90;;;;;;5116954;27;20079;-63
2024/01/13 06:57:33;;;;;;;3.92;1.23;;;3.20;99.90;;;;;;5080100;28;20394;-63
2024/01/13 06:59:59;;;;;;;2.65;1.05;;;3.20;99.90;;;;;;5075291;28;20033;-63
2024/01/13 07:02:25;;;;;;;3.60;1.38;;;3.20;99.90;;;;;;5076979;28;20603;-63
2024/01/13 07:04:50;;;;;;;2.90;1.27;;;3.20;99.90;;;;;;5108276;27;20489;-63
2024/01/13 07:07:16;;;;;;;3.83;1.63;;;3.20;99.90;;;;;;5078099;28;20043;-63
2024/01/13 07:09:41;;;;;;;2.85;1.30;;;3.30;99.90;;;;;;5064727;28;20178;-63
2024/01/13 07:12:07;;;;;;;5.13;1.77;;;3.30;99.90;;;;;;5078353;28;20506;-63
2024/01/13 07:14:33;;;;;;;4.63;1.60;;;3.20;99.90;;;;;;5082398;28;20354;-63
2024/01/13 07:16:58;;;;;;;4.00;2.08;;;3.30;99.90;;;;;;5077725;28;20056;-63
2024/01/13 07:19:24;;;;;;;4.40;2.30;;;3.20;99.90;;;;;;5079329;28;20068;-63
2024/01/13 07:21:49;;;;;;;5.97;2.67;;;3.20;99.90;;;;;;5075119;28;20403;-63
2024/01/13 07:24:15;;;;;;;5.72;3.00;;;3.20;99.90;;;;;;5077204;28;20033;-63
2024/01/13 07:26:44;;;;;;;6.57;2.70;;;3.30;99.90;;;;;;5071869;28;20048;-63
2024/01/13 07:29:09;;;;;;;4.90;2.60;;;3.20;99.90;;;;;;5079647;28;20052;-63
2024/01/13 07:31:35;;;;;;;5.75;2.90;;;3.20;99.90;;;;;;5077638;28;20032;-63
2024/01/13 07:34:01;;;;;;;4.53;2.63;;;3.20;99.90;;;;;;5076626;28;20044;-63
2024/01/13 07:36:26;;;;;;;4.70;2.60;;;3.30;99.90;;;;;;5075994;28;20040;-63
2024/01/13 07:38:52;;;;;;;3.15;2.22;;;3.30;99.90;;;;;;5076006;28;20463;-63
2024/01/13 07:41:18;;;;;;;3.75;2.63;;;3.30;99.90;;;;;;5081340;28;20074;-63
2024/01/13 07:43:46;;;;;;;2.88;1.88;;;3.20;99.90;;;;;;5090074;28;20032;-63
2024/01/13 07:46:15;;;;;;;6.60;2.40;;;3.30;99.90;;;;;;5086862;28;20402;-63
2024/01/13 07:48:40;;;;;;;4.45;1.90;;;3.30;99.90;;;;;;5113547;27;20044;-63
2024/01/13 07:51:06;;;;;;;3.45;1.90;;;3.30;99.90;;;;;;5116470;27;20058;-63
2024/01/13 07:53:32;;;;;;;2.22;1.42;;;3.30;99.90;;;;;;5086397;28;20070;-63
2024/01/13 07:55:58;;;;;;;2.50;0.95;;;3.30;99.90;;;;;;5081291;28;20379;-63
2024/01/13 07:58:24;;;;;;;1.60;1.17;;;3.30;99.90;;;;;;5081345;28;20050;-63
2024/01/13 08:00:49;;;;;;;1.70;0.68;;;3.30;99.90;;;;;;5086298;28;20394;-63
2024/01/13 08:03:15;;;;;;;2.75;0.63;;;3.40;99.90;;;;;;5082489;28;20040;-63
2024/01/13 08:05:40;;;;;;;1.90;0.80;;;3.30;99.90;;;;;;5083918;28;20107;-63
2024/01/13 08:08:07;;;;;;;2.03;1.02;;;3.40;99.90;;;;;;5087407;28;20044;-63
2024/01/13 08:10:35;;;;;;;2.78;1.38;;;3.40;99.90;;;;;;5087410;28;20073;-63
2024/01/13 08:13:01;;;;;;;2.67;1.02;;;3.40;99.90;;;;;;5090337;28;20432;-63
2024/01/13 08:15:27;;;;;;;1.85;1.23;;;3.40;99.90;;;;;;5085110;28;20040;-63
2024/01/13 08:17:52;;;;;;;3.63;1.38;;;3.40;99.90;;;;;;5087069;28;20505;-63
2024/01/13 08:20:19;;;;;;;2.10;1.35;;;3.40;99.90;;;;;;5120978;27;20063;-63
2024/01/13 08:22:46;;;;;;;3.10;1.58;;;3.40;99.90;;;;;;5085676;28;20123;-63
2024/01/13 08:25:12;;;;;;;3.47;2.08;;;3.50;99.90;;;;;;5087824;28;20040;-63
2024/01/13 08:27:38;;;;;;;5.60;2.17;;;3.40;99.90;;;;;;5088571;28;20054;-63
2024/01/13 08:30:05;;;;;;;11.32;3.63;;;3.50;99.90;;;;;;5083641;28;20045;-62
2024/01/13 08:32:31;;;;;;;6.82;4.18;;;3.50;99.90;;;;;;5088378;28;20398;-63
2024/01/13 08:34:57;;;;;;;12.35;5.43;;;3.50;99.90;;;;;;5085129;28;20127;-63
2024/01/13 08:37:23;;;;;;;13.45;7.20;;;3.50;99.90;;;;;;5086580;28;20131;-63
2024/01/13 08:39:48;;;;;;;18.27;8.80;;;3.50;99.90;;;;;;5088624;28;20043;-63
2024/01/13 08:42:14;;;;;;;22.00;11.95;;;3.50;99.90;;;;;;5083465;28;20718;-63
2024/01/13 08:44:40;;;;;;;26.20;11.82;;;3.50;99.90;;;;;;5086129;28;20078;-63
2024/01/13 08:47:05;;;;;;;22.67;12.40;;;3.60;99.90;;;;;;5083787;28;20047;-63
2024/01/13 08:49:31;;;;;;;28.05;14.38;;;3.50;99.90;;;;;;5084034;28;20119;-63
2024/01/13 08:51:57;;;;;;;30.73;15.45;;;3.60;99.90;;;;;;5087681;28;20509;-63
2024/01/13 08:54:23;;;;;;;32.38;16.13;;;3.60;99.90;;;;;;5089518;28;20056;-63
2024/01/13 08:56:52;;;;;;;32.80;16.52;;;3.60;99.90;;;;;;5083480;28;20032;-63
2024/01/13 08:59:18;;;;;;;35.45;17.65;;;3.60;99.90;;;;;;5122969;27;20036;-63
2024/01/13 09:01:44;;;;;;;39.67;17.90;;;3.60;99.90;;;;;;5083980;28;20691;-62
2024/01/13 09:04:10;;;;;;;36.97;20.67;;;3.60;99.90;;;;;;5086208;28;20494;-63
2024/01/13 09:06:36;;;;;;;47.00;20.52;;;3.60;99.90;;;;;;5084896;28;20416;-63
2024/01/13 09:09:02;;;;;;;40.92;21.70;;;3.50;99.90;;;;;;5086059;28;20347;-63
2024/01/13 09:11:29;;;;;;;42.75;21.67;;;3.60;99.90;;;;;;5087168;28;20127;-62
2024/01/13 09:13:54;;;;;;;45.95;20.48;;;3.60;99.90;;;;;;5087790;28;20032;-63
2024/01/13 09:16:20;;;;;;;48.15;22.70;;;3.50;99.90;;;;;;5083155;28;20044;-63
2024/01/13 09:18:45;;;;;;;50.70;25.63;;;3.60;99.90;;;;;;5089215;28;20509;-63
2024/01/13 09:21:12;;;;;;;50.80;25.33;;;3.60;99.90;;;;;;5088496;28;20542;-63
2024/01/13 09:23:40;;;;;;;49.08;25.77;;;3.50;99.90;;;;;;5091694;28;20039;-63
2024/01/13 09:26:05;;;;;;;57.42;26.08;;;3.60;99.90;;;;;;5087564;28;20380;-62
2024/01/13 09:28:32;;;;;;;59.13;26.48;;;3.60;99.90;;;;;;5084782;28;20062;-63
2024/01/13 09:30:58;;;;;;;56.55;28.55;;;3.60;99.90;;;;;;5085370;28;20088;-62
2024/01/13 09:33:24;;;;;;;58.67;30.25;;;3.60;99.90;;;;;;5082174;28;20059;-63
2024/01/13 09:35:50;;;;;;;64.63;30.98;;;3.60;99.90;;;;;;5090348;28;20036;-63
2024/01/13 09:38:15;;;;;;;62.45;31.85;;;3.60;99.90;;;;;;5085485;28;20035;-63
2024/01/13 09:40:41;;;;;;;56.22;31.95;;;3.60;99.90;;;;;;5088368;28;20047;-63
2024/01/13 09:43:23;;;;;;;56.83;32.75;;;3.60;99.90;;;;;;5089878;28;20386;-63
2024/01/13 09:45:50;;;;;;;60.35;32.53;;;3.60;99.90;;;;;;5087742;28;20040;-63
2024/01/13 09:48:18;;;;;;;66.18;34.45;;;3.60;99.90;;;;;;5087939;28;20058;-63
2024/01/13 09:50:47;;;;;;;60.42;34.13;;;3.60;99.90;;;;;;5088866;28;21001;-62
2024/01/13 09:53:23;;;;;;;58.95;32.35;;;3.60;99.90;;;;;;5090046;28;20047;-63
2024/01/13 09:55:54;;;;;;;63.13;34.38;;;3.70;99.90;;;;;;5088799;28;20170;-63
2024/01/13 09:58:19;;;;;;;63.97;34.03;;;3.60;99.90;;;;;;5067765;28;20058;-63
2024/01/13 10:00:47;;;;;;;62.47;35.72;;;3.70;99.90;;;;;;5085449;28;21735;-63
2024/01/13 10:03:13;;;;;;;57.63;34.20;;;3.70;99.90;;;;;;5088683;28;20041;-63
2024/01/13 10:05:38;;;;;;;58.10;33.33;;;3.70;99.90;;;;;;5090282;28;20480;-62
2024/01/13 10:08:05;;;;;;;59.15;33.67;;;3.70;99.90;;;;;;5085139;28;20493;-63
2024/01/13 10:10:32;;;;;;;56.75;32.95;;;3.70;99.90;;;;;;5090651;28;20039;-62
2024/01/13 10:12:57;;;;;;;64.20;35.00;;;3.60;99.90;;;;;;5086628;28;20043;-63
2024/01/13 10:15:23;;;;;;;53.28;33.72;;;3.70;99.90;;;;;;5085789;28;20028;-63
2024/01/13 10:17:53;;;;;;;58.80;34.50;;;3.70;99.90;;;;;;5085928;28;20052;-63
2024/01/13 10:20:19;;;;;;;55.33;33.63;;;3.80;99.90;;;;;;5093162;28;20862;-62
2024/01/13 10:22:44;;;;;;;50.65;33.22;;;3.80;99.90;;;;;;5085696;28;20119;-63
2024/01/13 10:25:10;;;;;;;51.38;33.08;;;3.80;99.90;;;;;;5090279;28;20040;-62
2024/01/13 10:27:37;;;;;;;50.55;34.00;;;3.80;99.90;;;;;;5088858;28;20485;-63
2024/01/13 10:30:06;;;;;;;48.45;34.85;;;3.90;99.90;;;;;;5089335;28;20069;-63
2024/01/13 10:32:32;;;;;;;51.75;32.72;;;3.80;99.90;;;;;;5090276;28;20040;-63
2024/01/13 10:34:57;;;;;;;48.13;32.90;;;3.90;99.90;;;;;;5084438;28;20440;-63
2024/01/13 10:37:26;;;;;;;43.75;31.90;;;3.80;99.90;;;;;;5084657;28;20490;-63
2024/01/13 10:39:51;;;;;;;44.90;31.45;;;3.80;99.90;;;;;;5085881;28;20076;-62
2024/01/13 10:42:20;;;;;;;44.47;31.63;;;3.80;99.90;;;;;;5086862;28;20068;-62
2024/01/13 10:44:55;;;;;;;40.72;30.52;;;3.90;99.90;;;;;;5087288;28;20718;-63
2024/01/13 10:47:25;;;;;;;43.63;31.50;;;3.90;99.90;;;;;;5085609;28;20035;-63
2024/01/13 10:49:51;;;;;;;42.60;30.70;;;3.90;99.90;;;;;;5089476;28;20040;-63
2024/01/13 10:52:25;;;;;;;47.70;33.03;;;3.90;99.90;;;;;;5090720;28;20090;-63
2024/01/13 10:54:51;;;;;;;43.90;32.83;;;3.90;99.90;;;;;;5081060;28;20056;-63
2024/01/13 10:57:18;;;;;;;40.33;30.65;;;3.90;99.90;;;;;;5082160;28;20072;-63
2024/01/13 10:59:44;;;;;;;43.67;32.72;;;3.90;99.90;;;;;;5083522;28;20040;-62
2024/01/13 11:02:14;;;;;;;47.50;33.03;;;4.00;99.90;;;;;;5087617;28;20130;-63
2024/01/13 11:04:42;;;;;;;41.10;31.77;;;4.00;99.90;;;;;;5084245;28;20527;-63
2024/01/13 11:07:07;;;;;;;44.42;32.38;;;4.00;99.90;;;;;;5088063;28;20537;-62
2024/01/13 11:09:33;;;;;;;47.78;31.10;;;4.00;99.90;;;;;;5085956;28;20115;-63
2024/01/13 11:12:08;;;;;;;37.90;31.17;;;4.00;99.90;;;;;;5087354;28;20032;-62
2024/01/13 11:14:38;;;;;;;39.58;29.25;;;4.00;99.90;;;;;;5085449;28;20043;-63
2024/01/13 11:17:06;;;;;;;41.72;31.33;;;4.00;99.90;;;;;;5081528;28;20098;-63
2024/01/13 11:19:33;;;;;;;39.83;29.60;;;4.10;99.90;;;;;;5084345;28;20406;-63
2024/01/13 11:21:59;;;;;;;37.67;29.17;;;4.00;99.90;;;;;;5082472;28;20118;-62
2024/01/13 11:24:26;;;;;;;42.00;30.75;;;4.10;99.90;;;;;;5089917;28;20140;-63
2024/01/13 11:26:54;;;;;;;36.17;29.92;;;4.10;99.90;;;;;;5086789;28;20036;-63
2024/01/13 11:29:25;;;;;;;39.22;29.20;;;4.10;99.90;;;;;;5089305;28;20036;-62
2024/01/13 11:31:58;;;;;;;38.03;27.27;;;4.10;99.90;;;;;;5086511;28;20071;-62
2024/01/13 11:34:26;;;;;;;40.13;27.17;;;4.10;99.90;;;;;;5085829;28;20086;-62
2024/01/13 11:36:58;;;;;;;38.85;28.42;;;4.10;99.90;;;;;;5082149;28;20113;-63
2024/01/13 11:39:24;;;;;;;33.83;26.55;;;4.20;99.90;;;;;;5084859;28;20498;-62
2024/01/13 11:41:55;;;;;;;38.58;26.88;;;4.10;99.90;;;;;;5113383;27;20032;-63
2024/01/13 11:44:26;;;;;;;37.47;25.83;;;4.20;99.90;;;;;;5087003;28;20047;-62
2024/01/13 11:47:10;;;;;;;34.13;24.80;;;4.20;99.90;;;;;;5090549;28;20079;-63
2024/01/13 11:49:43;;;;;;;37.50;25.58;;;4.20;99.90;;;;;;5082660;28;20401;-63
2024/01/13 11:52:09;;;;;;;41.50;25.55;;;4.20;99.90;;;;;;5087994;28;20486;-62
2024/01/13 11:54:37;;;;;;;30.10;23.17;;;4.30;99.90;;;;;;5098435;28;20055;-63
2024/01/13 11:57:08;;;;;;;35.92;23.05;;;4.30;99.90;;;;;;5116769;27;20135;-62
2024/01/13 11:59:34;;;;;;;29.30;21.10;;;4.30;99.90;;;;;;5083654;28;20127;-63
2024/01/13 12:02:00;;;;;;;33.00;22.33;;;4.30;99.90;;;;;;5085089;28;20115;-63
2024/01/13 12:04:28;;;;;;;32.00;21.75;;;4.30;99.90;;;;;;5113758;27;20166;-63
2024/01/13 12:06:54;;;;;;;33.92;21.27;;;4.30;99.90;;;;;;5087977;28;20047;-63
2024/01/13 12:09:24;;;;;;;38.97;22.13;;;4.30;99.90;;;;;;5087106;28;20118;-63
2024/01/13 12:12:02;;;;;;;32.83;21.83;;;4.30;99.90;;;;;;5116405;27;20556;-63
2024/01/13 12:14:29;;;;;;;33.13;21.33;;;4.40;99.90;;;;;;5084162;28;20079;-63
2024/01/13 12:16:58;;;;;;;31.45;19.92;;;4.30;99.90;;;;;;5087150;28;20036;-63
2024/01/13 12:19:32;;;;;;;30.98;20.20;;;4.50;99.90;;;;;;5088782;28;20036;-63
2024/01/13 12:21:58;;;;;;;27.05;19.30;;;4.40;99.90;;;;;;5082222;28;20033;-63
2024/01/13 12:24:28;;;;;;;25.70;18.27;;;4.50;99.90;;;;;;5086243;28;20032;-63
2024/01/13 12:26:54;;;;;;;26.15;18.17;;;4.40;99.90;;;;;;5082504;28;20037;-63
2024/01/13 12:29:21;;;;;;;26.25;18.40;;;4.40;99.90;;;;;;5088964;28;20043;-63
2024/01/13 12:31:48;;;;;;;25.73;18.20;;;4.40;99.90;;;;;;5086111;28;20094;-63
2024/01/13 12:34:15;;;;;;;26.70;17.50;;;4.40;99.90;;;;;;5084718;28;20048;-63
2024/01/13 12:36:41;;;;;;;23.85;17.00;;;4.40;99.90;;;;;;5085636;28;20089;-63
2024/01/13 12:39:08;;;;;;;27.42;16.20;;;4.50;99.90;;;;;;5087204;28;20628;-63
2024/01/13 12:41:34;;;;;;;22.05;15.98;;;4.40;99.90;;;;;;5080185;28;20039;-62
2024/01/13 12:44:00;;;;;;;21.90;14.98;;;4.50;99.90;;;;;;5082207;28;20154;-63
2024/01/13 12:46:27;;;;;;;20.90;15.98;;;4.50;99.90;;;;;;5087674;28;20464;-63